createdAt,value
2023-01-25T00:01:04.342Z,51.28
2023-01-25T00:04:06.976Z,48.00
2023-01-25T00:07:09.657Z,47.80
2023-01-25T00:10:12.681Z,41.90
2023-01-25T00:13:15.683Z,44.42
2023-01-25T00:16:18.310Z,48.60
2023-01-25T00:19:20.927Z,45.55
2023-01-25T00:22:23.352Z,47.13
2023-01-25T00:25:25.871Z,44.10
2023-01-25T00:28:28.630Z,43.23
2023-01-25T00:31:34.512Z,49.03
2023-01-25T00:34:48.285Z,40.92
2023-01-25T00:37:53.229Z,41.67
2023-01-25T00:40:57.500Z,42.55
2023-01-25T00:44:00.047Z,41.20
2023-01-25T00:47:03.739Z,39.88
2023-01-25T00:50:08.368Z,41.80
2023-01-25T00:53:11.197Z,50.45
2023-01-25T00:56:14.038Z,59.30
2023-01-25T00:59:16.694Z,49.17
2023-01-25T01:02:19.691Z,52.60
2023-01-25T01:05:22.216Z,40.22
2023-01-25T01:08:25.096Z,46.40
2023-01-25T01:11:28.770Z,41.05
2023-01-25T01:14:32.975Z,44.20
2023-01-25T01:17:35.466Z,39.13
2023-01-25T01:20:39.191Z,39.43
2023-01-25T01:23:41.884Z,44.53
2023-01-25T01:26:44.577Z,41.67
2023-01-25T01:29:47.386Z,43.72
2023-01-25T01:32:51.703Z,49.30
2023-01-25T01:35:54.382Z,54.83
2023-01-25T01:38:59.120Z,41.38
2023-01-25T01:42:01.972Z,41.47
2023-01-25T01:45:42.878Z,41.90
2023-01-25T01:48:51.326Z,44.70
2023-01-25T01:52:01.947Z,43.92
2023-01-25T01:55:18.775Z,38.93
2023-01-25T01:58:22.979Z,40.72
2023-01-25T02:01:27.753Z,42.03
2023-01-25T02:04:31.026Z,43.07
2023-01-25T02:07:37.161Z,41.88
2023-01-25T02:10:43.050Z,40.58
2023-01-25T02:13:47.240Z,41.35
2023-01-25T02:16:51.630Z,42.20
2023-01-25T02:20:09.281Z,36.97
2023-01-25T02:23:55.754Z,42.45
2023-01-25T02:26:58.405Z,51.47
2023-01-25T02:30:01.262Z,44.40
2023-01-25T02:33:04.206Z,44.75
2023-01-25T02:36:06.751Z,46.97
2023-01-25T02:39:17.335Z,35.72
2023-01-25T02:42:21.276Z,34.15
2023-01-25T02:45:29.570Z,39.65
2023-01-25T02:48:32.002Z,33.80
2023-01-25T02:51:40.076Z,34.85
2023-01-25T02:54:42.541Z,38.20
2023-01-25T02:57:45.276Z,33.07
2023-01-25T03:00:54.656Z,30.02
2023-01-25T03:03:57.261Z,34.22
2023-01-25T03:06:59.830Z,33.67
2023-01-25T03:10:04.018Z,43.25
2023-01-25T03:13:07.841Z,33.80
2023-01-25T03:16:12.989Z,38.20
2023-01-25T03:19:17.714Z,34.20
2023-01-25T03:22:20.681Z,30.08
2023-01-25T03:25:25.386Z,30.50
2023-01-25T03:28:35.420Z,32.97
2023-01-25T03:31:38.603Z,30.77
2023-01-25T03:34:41.114Z,32.25
2023-01-25T03:37:44.007Z,31.48
2023-01-25T03:40:47.689Z,34.10
2023-01-25T03:43:50.408Z,37.40
2023-01-25T03:46:53.777Z,34.53
2023-01-25T03:49:56.821Z,29.13
2023-01-25T03:53:07.212Z,28.02
2023-01-25T03:56:19.895Z,25.17
2023-01-25T03:59:33.428Z,28.75
2023-01-25T04:02:35.927Z,30.13
2023-01-25T04:05:39.170Z,32.22
2023-01-25T04:08:41.691Z,31.35
2023-01-25T04:11:44.988Z,30.60
2023-01-25T04:14:48.844Z,34.13
2023-01-25T04:17:57.129Z,30.98
2023-01-25T04:21:01.451Z,29.47
2023-01-25T04:24:04.392Z,34.58
2023-01-25T04:27:11.319Z,34.38
2023-01-25T04:30:22.270Z,30.98
2023-01-25T04:33:26.646Z,30.35
2023-01-25T04:36:29.107Z,29.70
2023-01-25T04:39:31.692Z,32.40
2023-01-25T04:42:34.547Z,30.43
2023-01-25T04:45:37.165Z,29.35
2023-01-25T04:48:44.908Z,28.45
2023-01-25T04:51:48.324Z,24.37
2023-01-25T04:54:50.833Z,28.17
2023-01-25T04:57:53.374Z,28.55
2023-01-25T05:01:00.969Z,28.58
2023-01-25T05:04:03.708Z,26.98
2023-01-25T05:07:12.575Z,28.23
2023-01-25T05:10:15.754Z,29.30
2023-01-25T05:13:35.855Z,27.37
2023-01-25T05:16:47.957Z,29.42
2023-01-25T05:19:51.107Z,25.58
2023-01-25T05:22:57.932Z,24.40
2023-01-25T05:26:18.910Z,26.88
2023-01-25T05:29:21.956Z,22.73
2023-01-25T05:32:35.929Z,22.98
2023-01-25T05:35:39.088Z,23.45
2023-01-25T05:38:41.798Z,26.55
2023-01-25T05:41:45.769Z,22.40
2023-01-25T05:44:48.535Z,19.80
2023-01-25T05:47:54.286Z,22.38
2023-01-25T05:50:58.363Z,23.17
2023-01-25T05:54:00.907Z,23.23
2023-01-25T05:57:03.875Z,21.92
2023-01-25T06:00:07.394Z,25.25
2023-01-25T06:03:15.883Z,24.83
2023-01-25T06:06:19.273Z,21.70
2023-01-25T06:09:23.523Z,24.73
2023-01-25T06:12:29.399Z,28.80
2023-01-25T06:15:33.254Z,22.37
2023-01-25T06:18:56.032Z,23.38
2023-01-25T06:22:21.701Z,26.70
2023-01-25T06:25:24.330Z,35.27
2023-01-25T06:28:30.802Z,28.90
2023-01-25T06:31:34.818Z,21.30
2023-01-25T06:34:37.663Z,30.20
2023-01-25T06:37:40.454Z,20.20
2023-01-25T06:40:43.354Z,22.58
2023-01-25T06:43:46.910Z,23.08
2023-01-25T06:46:49.547Z,22.10
2023-01-25T06:49:52.080Z,24.48
2023-01-25T06:52:55.666Z,24.15
2023-01-25T06:56:11.797Z,21.10
2023-01-25T06:59:16.077Z,19.38
2023-01-25T07:02:18.566Z,26.88
2023-01-25T07:05:21.075Z,26.30
2023-01-25T07:08:23.784Z,32.03
2023-01-25T07:11:26.727Z,18.30
2023-01-25T07:14:31.024Z,23.27
2023-01-25T07:17:33.564Z,30.13
2023-01-25T07:20:37.524Z,29.30
2023-01-25T07:23:41.623Z,21.30
2023-01-25T07:26:44.538Z,22.67
2023-01-25T07:29:47.310Z,29.20
2023-01-25T07:32:49.774Z,37.58
2023-01-25T07:35:52.241Z,34.58
2023-01-25T07:38:56.170Z,38.95
2023-01-25T07:41:58.889Z,44.47
2023-01-25T07:45:08.580Z,37.03
2023-01-25T07:48:11.378Z,37.30
2023-01-25T07:51:22.885Z,38.47
2023-01-25T07:54:25.607Z,31.88
2023-01-25T07:57:31.182Z,38.10
2023-01-25T08:00:33.842Z,34.00
2023-01-25T08:03:36.594Z,37.00
2023-01-25T08:06:39.481Z,46.67
2023-01-25T08:09:42.599Z,35.28
2023-01-25T08:12:46.561Z,30.13
2023-01-25T08:15:55.868Z,36.50
2023-01-25T08:19:00.303Z,34.90
2023-01-25T08:22:02.818Z,32.13
2023-01-25T08:25:05.732Z,25.88
2023-01-25T08:28:08.352Z,29.13
2023-01-25T08:31:19.193Z,30.00
2023-01-25T08:34:21.709Z,31.02
2023-01-25T08:37:24.313Z,27.27
2023-01-25T08:40:27.698Z,25.98
2023-01-25T08:43:30.221Z,27.73
2023-01-25T08:46:34.000Z,32.63
2023-01-25T08:49:36.560Z,28.77
2023-01-25T08:52:39.423Z,27.15
2023-01-25T08:55:43.240Z,30.35
2023-01-25T08:58:48.449Z,29.88
2023-01-25T09:01:50.965Z,31.87
2023-01-25T09:04:53.684Z,36.85
2023-01-25T09:07:56.174Z,29.08
2023-01-25T09:11:03.590Z,33.55
2023-01-25T09:14:06.615Z,42.13
2023-01-25T09:17:09.833Z,37.85
2023-01-25T09:20:12.646Z,43.00
2023-01-25T09:23:15.565Z,30.75
2023-01-25T09:26:18.946Z,35.03
2023-01-25T09:29:21.511Z,31.83
2023-01-25T09:32:24.440Z,34.83
2023-01-25T09:35:29.727Z,33.93
2023-01-25T09:38:32.691Z,33.47
2023-01-25T09:41:40.994Z,35.30
2023-01-25T09:45:04.643Z,37.28
2023-01-25T09:48:22.294Z,37.20
2023-01-25T09:51:51.913Z,35.20
2023-01-25T09:54:54.540Z,34.03
2023-01-25T09:58:00.866Z,35.15
2023-01-25T10:01:41.047Z,36.15
2023-01-25T10:04:46.049Z,39.60
2023-01-25T10:08:17.875Z,31.98
2023-01-25T10:11:25.874Z,27.13
2023-01-25T10:14:33.409Z,35.72
2023-01-25T10:17:40.046Z,32.43
2023-01-25T10:20:53.195Z,33.28
2023-01-25T10:24:08.353Z,33.05
2023-01-25T10:27:23.672Z,32.80
2023-01-25T10:30:29.733Z,36.57
2023-01-25T10:33:38.717Z,30.88
2023-01-25T10:36:42.519Z,34.70
2023-01-25T10:40:14.602Z,32.55
2023-01-25T10:43:20.341Z,38.03
2023-01-25T10:46:26.363Z,49.17
2023-01-25T10:49:44.248Z,37.53
2023-01-25T10:52:58.335Z,38.60
2023-01-25T10:56:24.378Z,44.33
2023-01-25T10:59:28.988Z,35.77
2023-01-25T11:03:01.052Z,37.88
2023-01-25T11:06:04.425Z,31.15
2023-01-25T11:09:21.898Z,38.30
2023-01-25T11:12:24.420Z,29.60
2023-01-25T11:15:27.041Z,33.92
2023-01-25T11:18:33.848Z,33.20
2023-01-25T11:21:36.345Z,36.92
2023-01-25T11:24:39.401Z,26.55
2023-01-25T11:27:42.001Z,28.40
2023-01-25T11:30:45.763Z,30.20
2023-01-25T11:33:48.450Z,26.40
2023-01-25T11:37:18.396Z,24.98
2023-01-25T11:41:02.372Z,22.98
2023-01-25T11:44:33.822Z,22.83
2023-01-25T11:48:03.986Z,24.63
2023-01-25T11:51:14.099Z,20.95
2023-01-25T11:54:32.874Z,22.95
2023-01-25T11:57:54.028Z,22.33
2023-01-25T12:01:14.883Z,24.47
2023-01-25T12:04:50.871Z,22.17
2023-01-25T12:08:27.027Z,23.33
2023-01-25T12:11:32.225Z,25.00
2023-01-25T12:14:56.222Z,22.40
2023-01-25T12:18:11.187Z,25.57
2023-01-25T12:21:40.190Z,26.40
2023-01-25T12:25:03.372Z,22.83
2023-01-25T12:28:21.281Z,24.55
2023-01-25T12:31:29.499Z,23.33
2023-01-25T12:34:40.956Z,20.37
2023-01-25T12:37:46.277Z,20.05
2023-01-25T12:41:00.177Z,21.85
2023-01-25T12:44:23.009Z,21.10
2023-01-25T12:48:03.275Z,21.97
2023-01-25T12:51:05.789Z,19.87
2023-01-25T12:54:23.403Z,22.40
2023-01-25T12:57:47.547Z,21.70
2023-01-25T13:01:12.002Z,19.15
2023-01-25T13:04:51.354Z,15.90
2023-01-25T13:08:31.824Z,19.10
2023-01-25T13:11:41.138Z,18.08
2023-01-25T13:14:44.143Z,21.52
2023-01-25T13:17:46.687Z,22.33
2023-01-25T13:20:53.875Z,21.07
2023-01-25T13:24:11.588Z,28.65
2023-01-25T13:27:36.567Z,19.95
2023-01-25T13:30:52.139Z,19.80
2023-01-25T13:33:54.598Z,21.60
2023-01-25T13:36:57.425Z,24.03
2023-01-25T13:40:32.757Z,18.50
2023-01-25T13:43:35.343Z,23.98
2023-01-25T13:46:38.091Z,19.15
2023-01-25T13:49:42.128Z,20.93
2023-01-25T13:53:02.402Z,19.48
2023-01-25T13:56:05.434Z,21.20
2023-01-25T13:59:26.936Z,19.48
2023-01-25T14:02:35.096Z,16.73
2023-01-25T14:05:37.556Z,17.33
2023-01-25T14:08:40.723Z,23.25
2023-01-25T14:11:55.895Z,21.02
2023-01-25T14:15:10.055Z,18.50
2023-01-25T14:18:19.434Z,17.40
2023-01-25T14:21:22.787Z,19.23
2023-01-25T14:24:25.334Z,21.48
2023-01-25T14:27:27.873Z,20.20
2023-01-25T14:30:34.777Z,18.85
2023-01-25T14:33:40.376Z,20.13
2023-01-25T14:36:42.863Z,18.80
2023-01-25T14:39:46.592Z,20.60
2023-01-25T14:42:51.178Z,20.45
2023-01-25T14:45:54.057Z,20.50
2023-01-25T14:49:11.769Z,17.93
2023-01-25T14:52:19.500Z,20.35
2023-01-25T14:55:22.232Z,21.65
2023-01-25T14:58:29.079Z,24.45
2023-01-25T15:01:38.120Z,21.63
2023-01-25T15:04:55.785Z,24.85
2023-01-25T15:08:15.594Z,23.60
2023-01-25T15:11:49.016Z,28.60
2023-01-25T15:14:56.480Z,22.05
2023-01-25T15:17:59.980Z,23.23
2023-01-25T15:21:03.603Z,20.08
2023-01-25T15:24:12.225Z,19.90
2023-01-25T15:27:14.806Z,21.17
2023-01-25T15:30:19.250Z,19.23
2023-01-25T15:33:28.742Z,23.95
2023-01-25T15:36:32.880Z,19.50
2023-01-25T15:39:35.889Z,17.13
2023-01-25T15:42:38.802Z,25.50
2023-01-25T15:45:46.391Z,22.27
2023-01-25T15:48:50.149Z,21.77
2023-01-25T15:51:54.083Z,22.05
2023-01-25T15:55:01.869Z,20.00
2023-01-25T15:58:05.280Z,29.97
2023-01-25T16:01:08.140Z,25.15
2023-01-25T16:04:13.703Z,19.75
2023-01-25T16:07:24.783Z,22.13
2023-01-25T16:10:27.885Z,23.37
2023-01-25T16:13:30.309Z,23.23
2023-01-25T16:16:37.354Z,19.13
2023-01-25T16:19:39.796Z,19.63
2023-01-25T16:22:42.490Z,18.70
2023-01-25T16:25:48.429Z,20.05
2023-01-25T16:28:51.052Z,20.33
2023-01-25T16:31:55.755Z,21.73
2023-01-25T16:34:58.796Z,21.47
2023-01-25T16:38:01.581Z,23.05
2023-01-25T16:41:05.038Z,32.97
2023-01-25T16:44:07.726Z,36.20
2023-01-25T16:47:14.702Z,36.63
2023-01-25T16:50:19.003Z,28.50
2023-01-25T16:53:21.567Z,27.27
2023-01-25T16:56:27.535Z,21.40
2023-01-25T16:59:30.760Z,23.73
2023-01-25T17:02:33.565Z,22.85
2023-01-25T17:05:38.361Z,21.63
2023-01-25T17:08:41.105Z,25.85
2023-01-25T17:11:44.070Z,18.20
2023-01-25T17:14:46.666Z,25.97
2023-01-25T17:17:49.232Z,27.30
2023-01-25T17:21:01.918Z,28.42
2023-01-25T17:24:04.843Z,27.50
2023-01-25T17:27:07.604Z,26.77
2023-01-25T17:30:12.298Z,22.67
2023-01-25T17:33:16.424Z,24.88
2023-01-25T17:36:19.985Z,27.58
2023-01-25T17:39:23.442Z,25.70
2023-01-25T17:42:26.377Z,24.30
2023-01-25T17:45:29.410Z,25.10
2023-01-25T17:48:32.266Z,26.95
2023-01-25T17:51:36.656Z,29.75
2023-01-25T17:54:40.195Z,34.07
2023-01-25T17:57:43.540Z,31.83
2023-01-25T18:00:47.309Z,30.90
2023-01-25T18:03:52.404Z,28.15
2023-01-25T18:06:55.232Z,29.70
2023-01-25T18:09:57.862Z,26.63
2023-01-25T18:13:04.945Z,28.98
2023-01-25T18:16:10.052Z,27.92
2023-01-25T18:19:13.431Z,25.10
2023-01-25T18:22:16.276Z,25.52
2023-01-25T18:25:36.212Z,25.48
2023-01-25T18:28:38.900Z,25.13
2023-01-25T18:31:42.377Z,25.10
2023-01-25T18:34:46.888Z,26.00
2023-01-25T18:37:49.751Z,25.48
2023-01-25T18:40:53.450Z,23.27
2023-01-25T18:43:56.869Z,24.85
2023-01-25T18:46:59.659Z,25.30
2023-01-25T18:50:02.792Z,24.70
2023-01-25T18:53:05.815Z,25.38
2023-01-25T18:56:17.564Z,24.13
2023-01-25T18:59:20.284Z,27.47
2023-01-25T19:02:24.170Z,27.10
2023-01-25T19:05:27.879Z,29.17
2023-01-25T19:08:36.456Z,30.02
2023-01-25T19:11:39.514Z,33.65
2023-01-25T19:14:42.419Z,34.60
2023-01-25T19:17:45.233Z,37.08
2023-01-25T19:20:50.351Z,34.58
2023-01-25T19:23:54.789Z,33.03
2023-01-25T19:26:57.729Z,31.30
2023-01-25T19:30:00.791Z,30.23
2023-01-25T19:33:03.512Z,30.95
2023-01-25T19:36:09.173Z,34.35
2023-01-25T19:39:12.376Z,31.73
2023-01-25T19:42:18.399Z,31.48
2023-01-25T19:45:21.439Z,35.20
2023-01-25T19:48:23.978Z,35.30
2023-01-25T19:51:32.105Z,30.35
2023-01-25T19:54:35.316Z,29.87
2023-01-25T19:57:38.505Z,28.58
2023-01-25T20:00:43.744Z,31.85
2023-01-25T20:03:47.418Z,28.80
2023-01-25T20:06:50.906Z,28.43
2023-01-25T20:09:53.733Z,28.65
2023-01-25T20:12:57.479Z,24.40
2023-01-25T20:16:00.367Z,25.55
2023-01-25T20:19:03.762Z,25.67
2023-01-25T20:22:06.956Z,25.98
2023-01-25T20:25:10.125Z,27.15
2023-01-25T20:28:13.218Z,24.35
2023-01-25T20:31:35.001Z,25.13
2023-01-25T20:34:38.088Z,24.25
2023-01-25T20:37:40.907Z,23.77
2023-01-25T20:40:43.702Z,25.92
2023-01-25T20:43:48.358Z,25.90
2023-01-25T20:46:51.758Z,23.33
2023-01-25T20:49:55.654Z,23.35
2023-01-25T20:52:59.036Z,27.20
2023-01-25T20:56:01.620Z,21.83
2023-01-25T20:59:04.516Z,23.77
2023-01-25T21:02:10.655Z,23.73
2023-01-25T21:05:13.616Z,24.40
2023-01-25T21:08:17.234Z,24.50
2023-01-25T21:11:20.365Z,32.67
2023-01-25T21:14:23.451Z,35.65
2023-01-25T21:17:26.324Z,35.67
2023-01-25T21:20:31.784Z,36.90
2023-01-25T21:23:35.593Z,36.05
2023-01-25T21:26:38.597Z,34.45
2023-01-25T21:29:41.346Z,38.78
2023-01-25T21:32:44.219Z,43.87
2023-01-25T21:35:47.020Z,45.92
2023-01-25T21:38:51.354Z,60.65
2023-01-25T21:41:53.831Z,53.47
2023-01-25T21:45:15.394Z,45.00
2023-01-25T21:48:37.865Z,47.05
2023-01-25T21:51:50.777Z,44.40
2023-01-25T21:54:53.265Z,40.55
2023-01-25T21:57:55.702Z,43.23
2023-01-25T22:01:02.152Z,41.55
2023-01-25T22:04:06.069Z,36.53
2023-01-25T22:07:09.351Z,38.37
2023-01-25T22:10:12.125Z,33.75
2023-01-25T22:13:14.830Z,37.38
2023-01-25T22:16:17.304Z,35.28
2023-01-25T22:19:19.857Z,38.17
2023-01-25T22:22:22.630Z,36.20
2023-01-25T22:25:25.239Z,37.80
2023-01-25T22:28:28.236Z,42.75
2023-01-25T22:31:31.850Z,44.63
2023-01-25T22:34:34.429Z,37.90
2023-01-25T22:37:38.130Z,44.75
2023-01-25T22:40:41.199Z,39.10
2023-01-25T22:43:44.368Z,43.00
2023-01-25T22:46:47.424Z,44.33
2023-01-25T22:49:50.178Z,43.08
2023-01-25T22:52:52.671Z,42.28
2023-01-25T22:56:06.289Z,41.70
2023-01-25T22:59:11.585Z,42.67
2023-01-25T23:02:14.060Z,43.22
2023-01-25T23:05:16.647Z,41.72
2023-01-25T23:08:19.210Z,42.08
2023-01-25T23:11:24.260Z,39.73
2023-01-25T23:14:46.988Z,41.80
2023-01-25T23:18:08.039Z,41.33
2023-01-25T23:21:11.874Z,37.42
2023-01-25T23:24:14.594Z,38.33
2023-01-25T23:27:17.051Z,37.77
2023-01-25T23:30:20.063Z,37.33
2023-01-25T23:33:22.519Z,36.95
2023-01-25T23:36:28.393Z,38.53
2023-01-25T23:39:30.899Z,40.83
2023-01-25T23:42:33.388Z,37.83
2023-01-25T23:45:35.915Z,38.55
2023-01-25T23:48:38.550Z,38.67
2023-01-25T23:51:41.239Z,36.93
2023-01-25T23:54:43.695Z,37.97
2023-01-25T23:57:46.137Z,36.92
